createdAt,value
2019-04-27T00:00:47.604Z,55.43
2019-04-27T00:03:19.805Z,50.20
2019-04-27T00:05:50.216Z,48.83
2019-04-27T00:08:38.779Z,53.08
2019-04-27T00:11:08.726Z,52.85
2019-04-27T00:13:40.619Z,60.30
2019-04-27T00:16:15.941Z,54.30
2019-04-27T00:18:49.799Z,47.80
2019-04-27T00:21:30.719Z,60.03
2019-04-27T00:24:01.296Z,61.80
2019-04-27T00:26:33.330Z,59.20
2019-04-27T00:29:04.559Z,56.55
2019-04-27T00:31:35.351Z,59.58
2019-04-27T00:34:05.706Z,47.20
2019-04-27T00:36:53.461Z,63.75
2019-04-27T00:39:43.640Z,49.50
2019-04-27T00:42:15.207Z,36.90
2019-04-27T00:44:45.698Z,43.55
2019-04-27T00:47:15.938Z,42.05
2019-04-27T00:49:46.646Z,39.08
2019-04-27T00:52:18.847Z,36.33
2019-04-27T00:54:49.554Z,46.15
2019-04-27T00:57:22.873Z,39.50
2019-04-27T01:00:11.175Z,41.70
2019-04-27T01:02:43.634Z,47.30
2019-04-27T01:05:15.930Z,46.90
2019-04-27T01:07:46.796Z,45.73
2019-04-27T01:10:17.499Z,48.60
2019-04-27T01:12:47.887Z,37.03
2019-04-27T01:15:18.594Z,41.23
2019-04-27T01:17:49.071Z,42.43
2019-04-27T01:20:19.590Z,48.00
2019-04-27T01:22:50.184Z,46.48
2019-04-27T01:25:24.082Z,40.67
2019-04-27T01:27:59.631Z,42.48
2019-04-27T01:30:39.199Z,41.53
2019-04-27T01:33:09.852Z,44.70
2019-04-27T01:35:42.152Z,38.13
2019-04-27T01:38:12.640Z,46.98
2019-04-27T01:40:42.912Z,41.77
2019-04-27T01:43:13.126Z,48.83
2019-04-27T01:45:43.338Z,45.70
2019-04-27T01:48:23.031Z,41.00
2019-04-27T01:50:45.644Z,45.78
2019-04-27T01:53:16.404Z,36.23
2019-04-27T01:55:46.676Z,41.20
2019-04-27T01:58:19.943Z,39.20
2019-04-27T02:01:00.978Z,44.98
2019-04-27T02:03:49.628Z,47.80
2019-04-27T02:06:20.901Z,42.73
2019-04-27T02:08:51.396Z,44.30
2019-04-27T02:11:21.684Z,44.55
2019-04-27T02:13:51.935Z,42.93
2019-04-27T02:16:22.153Z,52.65
2019-04-27T02:18:52.388Z,43.28
2019-04-27T02:21:22.604Z,43.63
2019-04-27T02:23:53.218Z,48.13
2019-04-27T02:26:24.296Z,44.75
2019-04-27T02:29:01.675Z,40.20
2019-04-27T02:31:34.749Z,48.38
2019-04-27T02:34:13.045Z,41.90
2019-04-27T02:36:43.702Z,42.98
2019-04-27T02:39:14.601Z,49.88
2019-04-27T02:41:45.257Z,41.10
2019-04-27T02:44:20.196Z,48.92
2019-04-27T02:46:52.954Z,48.68
2019-04-27T02:49:23.225Z,41.88
2019-04-27T02:52:11.490Z,48.40
2019-04-27T02:54:41.793Z,41.50
2019-04-27T02:57:12.425Z,53.05
2019-04-27T02:59:43.064Z,43.98
2019-04-27T03:02:19.677Z,53.38
2019-04-27T03:04:50.191Z,49.73
2019-04-27T03:07:20.435Z,44.03
2019-04-27T03:09:51.242Z,45.98
2019-04-27T03:12:24.414Z,43.70
2019-04-27T03:15:00.624Z,37.50
2019-04-27T03:17:32.896Z,40.50
2019-04-27T03:20:10.601Z,43.25
2019-04-27T03:22:43.002Z,45.65
2019-04-27T03:25:15.966Z,50.17
2019-04-27T03:27:51.046Z,40.15
2019-04-27T03:30:23.506Z,44.15
2019-04-27T03:32:56.875Z,39.08
2019-04-27T03:35:32.069Z,38.33
2019-04-27T03:38:01.476Z,42.20
2019-04-27T03:40:32.146Z,40.03
2019-04-27T03:43:05.097Z,46.30
2019-04-27T03:45:35.769Z,44.70
2019-04-27T03:48:06.678Z,43.68
2019-04-27T03:50:55.394Z,42.15
2019-04-27T03:53:39.850Z,51.55
2019-04-27T03:59:02.656Z,48.55
2019-04-27T04:01:33.026Z,46.00
2019-04-27T04:04:03.749Z,50.00
2019-04-27T04:06:36.330Z,40.08
2019-04-27T04:09:11.114Z,41.50
2019-04-27T04:11:46.005Z,39.45
2019-04-27T04:14:23.852Z,47.60
2019-04-27T04:16:59.986Z,48.25
2019-04-27T04:19:31.509Z,52.85
2019-04-27T04:22:01.437Z,46.83
2019-04-27T04:24:31.995Z,42.17
2019-04-27T04:27:02.525Z,47.98
2019-04-27T04:29:32.794Z,39.33
2019-04-27T04:32:03.402Z,47.93
2019-04-27T04:34:33.793Z,38.13
2019-04-27T04:37:04.701Z,38.28
2019-04-27T04:39:34.984Z,38.60
2019-04-27T04:42:09.927Z,38.90
2019-04-27T04:44:52.483Z,31.37
2019-04-27T04:47:30.733Z,39.23
2019-04-27T04:50:11.232Z,37.35
2019-04-27T04:52:34.156Z,35.00
2019-04-27T04:55:05.436Z,39.88
2019-04-27T04:57:36.123Z,32.25
2019-04-27T05:00:09.891Z,29.55
2019-04-27T05:02:40.717Z,40.88
2019-04-27T05:05:11.515Z,35.78
2019-04-27T05:07:41.982Z,35.20
2019-04-27T05:10:12.582Z,37.13
2019-04-27T05:12:42.806Z,26.60
2019-04-27T05:15:13.122Z,33.35
2019-04-27T05:17:44.522Z,36.85
2019-04-27T05:20:24.441Z,33.40
2019-04-27T05:22:52.249Z,45.03
2019-04-27T05:25:22.545Z,36.25
2019-04-27T05:27:52.777Z,30.50
2019-04-27T05:30:23.049Z,30.45
2019-04-27T05:32:53.647Z,38.45
2019-04-27T05:35:24.465Z,38.20
2019-04-27T05:37:54.780Z,33.13
2019-04-27T05:40:25.011Z,35.50
2019-04-27T05:42:56.253Z,27.93
2019-04-27T05:45:57.706Z,33.15
2019-04-27T05:48:32.092Z,24.45
2019-04-27T05:51:03.777Z,28.80
2019-04-27T05:53:33.998Z,34.53
2019-04-27T05:56:04.222Z,21.75
2019-04-27T05:58:34.455Z,24.25
2019-04-27T06:01:06.367Z,27.90
2019-04-27T06:03:37.362Z,26.50
2019-04-27T06:06:09.517Z,24.10
2019-04-27T06:08:39.707Z,36.68
2019-04-27T06:11:10.377Z,40.28
2019-04-27T06:13:40.665Z,29.52
2019-04-27T06:16:10.889Z,26.52
2019-04-27T06:18:42.422Z,25.92
2019-04-27T06:21:12.815Z,32.20
2019-04-27T06:23:43.561Z,29.85
2019-04-27T06:26:13.902Z,26.48
2019-04-27T06:28:44.130Z,29.42
2019-04-27T06:31:14.363Z,22.20
2019-04-27T06:33:44.597Z,22.48
2019-04-27T06:36:14.879Z,23.25
2019-04-27T06:38:45.102Z,22.27
2019-04-27T06:41:15.404Z,23.45
2019-04-27T06:43:45.641Z,22.90
2019-04-27T06:46:17.511Z,26.17
2019-04-27T06:48:49.468Z,26.45
2019-04-27T06:51:20.097Z,23.27
2019-04-27T06:53:51.101Z,31.07
2019-04-27T06:56:21.347Z,25.75
2019-04-27T06:58:51.791Z,28.20
2019-04-27T07:01:22.042Z,33.08
2019-04-27T07:03:52.261Z,28.77
2019-04-27T07:06:23.618Z,29.18
2019-04-27T07:08:55.328Z,30.75
2019-04-27T07:11:25.871Z,30.27
2019-04-27T07:13:56.235Z,30.70
2019-04-27T07:16:26.484Z,34.15
2019-04-27T07:18:57.236Z,35.75
2019-04-27T07:21:28.652Z,32.23
2019-04-27T07:24:00.393Z,32.33
2019-04-27T07:26:30.686Z,34.18
2019-04-27T07:29:00.935Z,28.10
2019-04-27T07:31:31.880Z,25.55
2019-04-27T07:34:02.440Z,26.05
2019-04-27T07:36:33.066Z,27.48
2019-04-27T07:39:04.054Z,29.65
2019-04-27T07:41:35.761Z,32.73
2019-04-27T07:44:11.271Z,39.95
2019-04-27T07:46:41.605Z,37.88
2019-04-27T07:49:11.848Z,42.67
2019-04-27T07:51:42.070Z,45.12
2019-04-27T07:54:12.283Z,32.93
2019-04-27T07:56:42.891Z,33.78
2019-04-27T07:59:13.190Z,34.50
2019-04-27T08:01:43.400Z,33.95
2019-04-27T08:04:13.995Z,41.98
2019-04-27T08:06:45.876Z,42.10
2019-04-27T08:09:16.167Z,41.83
2019-04-27T08:11:46.460Z,36.83
2019-04-27T08:14:18.580Z,41.50
2019-04-27T08:16:49.551Z,39.55
2019-04-27T08:19:20.212Z,41.42
2019-04-27T08:21:50.878Z,34.85
2019-04-27T08:24:21.619Z,39.92
2019-04-27T08:26:56.473Z,39.60
2019-04-27T08:29:43.714Z,37.67
2019-04-27T08:32:19.579Z,37.58
2019-04-27T08:34:50.303Z,40.92
2019-04-27T08:37:20.915Z,39.83
2019-04-27T08:39:52.242Z,37.30
2019-04-27T08:42:22.400Z,49.77
2019-04-27T08:44:53.850Z,32.63
2019-04-27T08:47:24.536Z,38.88
2019-04-27T08:49:54.894Z,37.45
2019-04-27T08:52:25.166Z,38.83
2019-04-27T08:54:55.384Z,37.50
2019-04-27T08:57:28.850Z,41.37
2019-04-27T08:59:59.661Z,39.73
2019-04-27T09:02:41.763Z,36.30
2019-04-27T09:05:02.228Z,36.03
2019-04-27T09:07:41.656Z,38.58
2019-04-27T09:10:15.629Z,36.95
2019-04-27T09:13:01.122Z,40.25
2019-04-27T09:15:49.444Z,40.05
2019-04-27T09:18:22.376Z,38.10
2019-04-27T09:20:54.346Z,40.50
2019-04-27T09:23:26.207Z,40.43
2019-04-27T09:25:59.406Z,44.05
2019-04-27T09:28:29.973Z,42.23
2019-04-27T09:31:00.508Z,40.67
2019-04-27T09:33:31.294Z,42.10
2019-04-27T09:36:01.585Z,38.10
2019-04-27T09:38:32.178Z,42.38
2019-04-27T09:41:02.467Z,40.88
2019-04-27T09:43:33.357Z,40.12
2019-04-27T09:46:05.693Z,38.78
2019-04-27T09:48:36.204Z,38.30
2019-04-27T09:51:06.659Z,36.15
2019-04-27T09:53:37.322Z,37.78
2019-04-27T09:56:07.709Z,36.85
2019-04-27T09:58:38.380Z,41.60
2019-04-27T10:01:09.462Z,35.17
2019-04-27T10:03:46.035Z,37.03
2019-04-27T10:06:17.057Z,40.52
2019-04-27T10:08:47.864Z,42.20
2019-04-27T10:11:18.172Z,38.53
2019-04-27T10:13:48.872Z,37.90
2019-04-27T10:16:19.212Z,35.95
2019-04-27T10:18:49.536Z,33.38
2019-04-27T10:21:20.163Z,38.83
2019-04-27T10:23:50.527Z,33.45
2019-04-27T10:26:20.738Z,34.63
2019-04-27T10:28:50.973Z,38.13
2019-04-27T10:31:21.208Z,37.05
2019-04-27T10:33:51.491Z,36.90
2019-04-27T10:36:41.146Z,35.65
2019-04-27T10:39:13.774Z,30.97
2019-04-27T10:41:46.280Z,39.90
2019-04-27T10:44:18.198Z,38.20
2019-04-27T10:46:48.398Z,32.55
2019-04-27T10:49:19.260Z,34.88
2019-04-27T10:51:49.633Z,33.78
2019-04-27T10:54:20.164Z,36.73
2019-04-27T10:56:50.848Z,41.08
2019-04-27T10:59:21.684Z,30.72
2019-04-27T11:01:52.318Z,33.40
2019-04-27T11:04:33.463Z,30.35
2019-04-27T11:07:07.109Z,31.75
2019-04-27T11:09:38.944Z,31.52
2019-04-27T11:12:09.478Z,28.25
2019-04-27T11:14:39.697Z,34.00
2019-04-27T11:17:11.372Z,36.33
2019-04-27T11:19:41.607Z,32.73
2019-04-27T11:22:12.305Z,31.77
2019-04-27T11:24:42.716Z,35.03
2019-04-27T11:27:12.934Z,33.35
2019-04-27T11:29:43.243Z,31.45
2019-04-27T11:32:15.765Z,31.90
2019-04-27T11:34:59.897Z,34.95
2019-04-27T11:37:32.173Z,31.80
2019-04-27T11:40:02.483Z,27.00
2019-04-27T11:42:34.157Z,39.23
2019-04-27T11:45:10.691Z,29.87
2019-04-27T11:47:41.448Z,44.67
2019-04-27T11:50:13.243Z,39.40
2019-04-27T11:52:45.503Z,36.65
2019-04-27T11:55:16.260Z,30.60
2019-04-27T11:57:47.005Z,33.35
2019-04-27T12:00:24.247Z,26.80
2019-04-27T12:02:56.816Z,26.68
2019-04-27T12:05:27.763Z,32.95
2019-04-27T12:08:08.997Z,29.40
2019-04-27T12:10:39.531Z,27.30
2019-04-27T12:13:09.837Z,33.05
2019-04-27T12:15:40.157Z,29.50
2019-04-27T12:18:10.486Z,29.20
2019-04-27T12:20:40.714Z,30.45
2019-04-27T12:23:11.091Z,32.93
2019-04-27T12:25:42.741Z,31.05
2019-04-27T12:28:30.639Z,28.38
2019-04-27T12:31:01.043Z,26.30
2019-04-27T12:33:31.349Z,31.33
2019-04-27T12:36:01.554Z,31.07
2019-04-27T12:38:31.803Z,32.10
2019-04-27T12:41:02.038Z,27.42
2019-04-27T12:43:32.369Z,28.70
2019-04-27T12:46:03.011Z,33.35
2019-04-27T12:48:33.734Z,26.07
2019-04-27T12:51:04.373Z,31.57
2019-04-27T12:53:49.970Z,52.23
2019-04-27T12:56:21.904Z,30.27
2019-04-27T12:58:53.932Z,32.15
2019-04-27T13:01:28.495Z,31.85
2019-04-27T13:04:12.341Z,36.15
2019-04-27T13:06:42.630Z,28.02
2019-04-27T13:09:13.255Z,32.48
2019-04-27T13:11:43.554Z,30.17
2019-04-27T13:14:13.966Z,51.10
2019-04-27T13:16:45.700Z,41.18
2019-04-27T13:19:16.424Z,30.20
2019-04-27T13:21:47.033Z,28.80
2019-04-27T13:24:18.900Z,27.25
2019-04-27T13:26:49.120Z,31.87
2019-04-27T13:29:20.757Z,27.98
2019-04-27T13:31:50.974Z,34.48
2019-04-27T13:34:21.614Z,33.92
2019-04-27T13:36:52.199Z,37.53
2019-04-27T13:39:22.825Z,51.63
2019-04-27T13:41:53.198Z,34.78
2019-04-27T13:44:23.412Z,31.00
2019-04-27T13:47:11.285Z,36.17
2019-04-27T13:49:43.143Z,37.75
2019-04-27T13:52:16.199Z,32.90
2019-04-27T13:54:46.592Z,34.58
2019-04-27T13:57:18.428Z,31.33
2019-04-27T13:59:48.946Z,32.60
2019-04-27T14:02:23.457Z,35.85
2019-04-27T14:04:51.549Z,41.58
2019-04-27T14:07:21.771Z,33.92
2019-04-27T14:09:52.341Z,30.95
2019-04-27T14:12:23.012Z,49.35
2019-04-27T14:14:53.415Z,40.38
2019-04-27T14:17:24.025Z,34.78
2019-04-27T14:19:54.640Z,35.35
2019-04-27T14:22:24.928Z,31.05
2019-04-27T14:24:55.169Z,37.23
2019-04-27T14:27:27.416Z,34.33
2019-04-27T14:29:59.569Z,34.83
2019-04-27T14:32:30.181Z,40.43
2019-04-27T14:35:00.935Z,35.73
2019-04-27T14:37:31.455Z,32.15
2019-04-27T14:40:02.061Z,34.38
2019-04-27T14:42:34.180Z,37.90
2019-04-27T14:45:08.993Z,34.73
2019-04-27T14:47:40.026Z,39.05
2019-04-27T14:50:11.184Z,40.40
2019-04-27T14:52:41.392Z,39.67
2019-04-27T14:55:12.260Z,44.03
2019-04-27T14:57:42.755Z,32.15
2019-04-27T15:00:16.086Z,37.15
2019-04-27T15:02:46.633Z,30.08
2019-04-27T15:05:18.770Z,27.65
2019-04-27T15:07:50.665Z,29.87
2019-04-27T15:10:20.953Z,32.67
2019-04-27T15:12:52.259Z,24.43
2019-04-27T15:15:22.920Z,33.48
2019-04-27T15:17:57.490Z,29.30
2019-04-27T15:20:32.722Z,27.40
2019-04-27T15:23:02.817Z,26.82
2019-04-27T15:25:42.344Z,28.62
2019-04-27T15:28:12.155Z,30.48
2019-04-27T15:31:02.431Z,29.07
2019-04-27T15:33:54.726Z,24.82
2019-04-27T15:36:28.383Z,23.80
2019-04-27T15:39:12.353Z,22.48
2019-04-27T15:41:53.541Z,27.27
2019-04-27T15:44:27.823Z,28.38
2019-04-27T15:46:58.155Z,26.02
2019-04-27T15:49:28.441Z,26.80
2019-04-27T15:52:00.145Z,35.63
2019-04-27T15:54:32.318Z,31.62
2019-04-27T15:57:05.822Z,34.67
2019-04-27T15:59:37.782Z,29.15
2019-04-27T16:02:11.805Z,31.95
2019-04-27T16:04:44.425Z,30.25
2019-04-27T16:07:12.615Z,38.08
2019-04-27T16:09:43.206Z,32.98
2019-04-27T16:12:13.577Z,35.58
2019-04-27T16:14:44.256Z,37.90
2019-04-27T16:17:14.882Z,32.05
2019-04-27T16:19:50.207Z,35.75
2019-04-27T16:22:22.602Z,41.02
2019-04-27T16:24:54.728Z,36.88
2019-04-27T16:27:31.327Z,32.80
2019-04-27T16:30:09.597Z,35.80
2019-04-27T16:32:40.390Z,33.67
2019-04-27T16:35:14.067Z,37.80
2019-04-27T16:38:01.194Z,36.98
2019-04-27T16:40:40.102Z,36.15
2019-04-27T16:43:10.402Z,35.28
2019-04-27T16:45:40.630Z,38.17
2019-04-27T16:48:10.937Z,42.10
2019-04-27T16:50:41.364Z,39.65
2019-04-27T16:53:12.699Z,41.70
2019-04-27T16:55:43.373Z,38.88
2019-04-27T16:58:15.986Z,32.05
2019-04-27T17:00:47.946Z,39.83
2019-04-27T17:03:18.289Z,36.65
2019-04-27T17:05:48.980Z,40.65
2019-04-27T17:08:22.289Z,38.55
2019-04-27T17:10:51.370Z,43.87
2019-04-27T17:13:22.189Z,32.67
2019-04-27T17:16:06.033Z,38.30
2019-04-27T17:18:43.688Z,37.27
2019-04-27T17:21:19.042Z,36.55
2019-04-27T17:23:51.717Z,37.35
2019-04-27T17:26:24.066Z,42.45
2019-04-27T17:29:16.811Z,37.03
2019-04-27T17:31:45.071Z,39.55
2019-04-27T17:34:19.043Z,36.10
2019-04-27T17:36:48.550Z,53.17
2019-04-27T17:39:23.270Z,43.13
2019-04-27T17:41:53.106Z,40.38
2019-04-27T17:44:23.528Z,38.42
2019-04-27T17:46:53.828Z,47.45
2019-04-27T17:49:24.485Z,43.90
2019-04-27T17:51:54.978Z,38.70
2019-04-27T17:54:28.867Z,38.55
2019-04-27T17:57:01.307Z,42.93
2019-04-27T17:59:40.808Z,44.40
2019-04-27T18:02:15.082Z,41.53
2019-04-27T18:04:45.314Z,39.15
2019-04-27T18:07:22.166Z,45.03
2019-04-27T18:09:54.251Z,44.85
2019-04-27T18:12:25.671Z,41.45
2019-04-27T18:14:56.007Z,43.05
2019-04-27T18:17:28.747Z,43.63
2019-04-27T18:20:08.724Z,36.95
2019-04-27T18:22:40.308Z,36.50
2019-04-27T18:25:10.696Z,40.10
2019-04-27T18:27:45.504Z,39.70
2019-04-27T18:30:21.113Z,41.70
2019-04-27T18:32:51.939Z,42.80
2019-04-27T18:35:26.153Z,41.88
2019-04-27T18:37:58.415Z,38.23
2019-04-27T18:40:32.182Z,44.20
2019-04-27T18:43:02.013Z,38.83
2019-04-27T18:45:38.072Z,44.65
2019-04-27T18:48:13.487Z,39.20
2019-04-27T18:50:43.591Z,43.28
2019-04-27T18:53:16.372Z,41.45
2019-04-27T18:55:50.059Z,39.07
2019-04-27T18:58:21.182Z,40.15
2019-04-27T19:00:51.561Z,38.13
2019-04-27T19:03:22.157Z,44.03
2019-04-27T19:05:52.523Z,38.58
2019-04-27T19:08:23.116Z,41.90
2019-04-27T19:10:53.713Z,37.05
2019-04-27T19:13:23.971Z,43.15
2019-04-27T19:15:54.371Z,38.17
2019-04-27T19:18:25.571Z,45.15
2019-04-27T19:20:55.853Z,38.30
2019-04-27T19:23:26.688Z,46.28
2019-04-27T19:26:01.653Z,42.00
2019-04-27T19:28:42.650Z,42.73
2019-04-27T19:31:14.758Z,45.23
2019-04-27T19:33:45.035Z,45.48
2019-04-27T19:36:15.522Z,44.38
2019-04-27T19:38:45.773Z,42.48
2019-04-27T19:41:18.409Z,44.73
2019-04-27T19:43:48.918Z,43.68
2019-04-27T19:46:20.132Z,44.25
2019-04-27T19:48:51.059Z,37.08
2019-04-27T19:51:21.795Z,44.42
2019-04-27T19:53:52.281Z,43.75
2019-04-27T19:56:22.511Z,39.18
2019-04-27T19:58:54.692Z,47.67
2019-04-27T20:01:28.076Z,39.42
2019-04-27T20:04:00.200Z,42.13
2019-04-27T20:06:30.572Z,38.30
2019-04-27T20:09:11.127Z,41.98
2019-04-27T20:11:41.652Z,44.83
2019-04-27T20:14:12.027Z,40.88
2019-04-27T20:16:42.292Z,46.85
2019-04-27T20:19:12.885Z,44.27
2019-04-27T20:21:43.224Z,44.27
2019-04-27T20:24:15.028Z,43.08
2019-04-27T20:26:45.585Z,44.35
2019-04-27T20:29:16.860Z,45.45
2019-04-27T20:31:47.461Z,41.28
2019-04-27T20:34:17.807Z,40.98
2019-04-27T20:36:48.463Z,44.00
2019-04-27T20:39:19.147Z,44.00
2019-04-27T20:41:51.135Z,39.20
2019-04-27T20:44:21.545Z,40.83
2019-04-27T20:46:51.889Z,43.95
2019-04-27T20:49:22.267Z,38.55
2019-04-27T20:51:57.126Z,38.17
2019-04-27T20:54:27.762Z,38.20
2019-04-27T20:56:58.477Z,38.35
2019-04-27T20:59:28.779Z,39.98
2019-04-27T21:02:00.739Z,38.83
2019-04-27T21:04:35.415Z,40.05
2019-04-27T21:07:07.289Z,41.65
2019-04-27T21:09:38.094Z,39.73
2019-04-27T21:12:08.658Z,35.90
2019-04-27T21:14:41.833Z,35.90
2019-04-27T21:17:12.499Z,36.33
2019-04-27T21:19:42.721Z,31.05
2019-04-27T21:22:12.955Z,35.88
2019-04-27T21:24:43.170Z,37.08
2019-04-27T21:27:13.433Z,37.35
2019-04-27T21:29:44.122Z,31.77
2019-04-27T21:32:14.429Z,33.75
2019-04-27T21:34:44.671Z,32.17
2019-04-27T21:37:14.891Z,30.00
2019-04-27T21:39:46.665Z,33.88
2019-04-27T21:42:17.252Z,34.25
2019-04-27T21:44:47.928Z,31.80
2019-04-27T21:47:20.022Z,34.55
2019-04-27T21:49:51.783Z,34.20
2019-04-27T21:52:26.618Z,33.55
2019-04-27T21:55:01.326Z,34.58
2019-04-27T21:57:32.935Z,34.10
2019-04-27T22:00:10.915Z,32.42
2019-04-27T22:02:43.274Z,33.65
2019-04-27T22:05:15.388Z,34.15
2019-04-27T22:07:47.239Z,38.30
2019-04-27T22:10:17.455Z,34.75
2019-04-27T22:12:47.725Z,36.08
2019-04-27T22:15:17.926Z,39.33
2019-04-27T22:17:50.266Z,38.10
2019-04-27T22:20:20.832Z,40.30
2019-04-27T22:22:55.360Z,42.48
2019-04-27T22:27:56.982Z,35.15
2019-04-27T22:30:27.650Z,36.73
2019-04-27T22:32:58.284Z,39.08
2019-04-27T22:35:28.813Z,40.58
2019-04-27T22:37:59.038Z,38.53
2019-04-27T22:40:46.752Z,43.23
2019-04-27T22:43:35.173Z,37.63
2019-04-27T22:46:07.805Z,33.00
2019-04-27T22:48:38.123Z,35.60
2019-04-27T22:51:08.405Z,33.18
2019-04-27T22:53:38.935Z,31.02
2019-04-27T22:56:16.620Z,29.50
2019-04-27T22:58:58.445Z,28.65
2019-04-27T23:01:40.710Z,30.70
2019-04-27T23:04:22.837Z,30.20
2019-04-27T23:06:53.054Z,28.62
2019-04-27T23:09:23.653Z,32.35
2019-04-27T23:11:54.304Z,33.70
2019-04-27T23:14:24.600Z,31.93
2019-04-27T23:17:13.829Z,31.20
2019-04-27T23:19:44.395Z,34.65
2019-04-27T23:22:15.111Z,30.88
2019-04-27T23:24:45.805Z,32.98
2019-04-27T23:27:16.455Z,30.25
2019-04-27T23:29:46.747Z,31.75
2019-04-27T23:32:18.634Z,32.30
2019-04-27T23:34:49.312Z,34.05
2019-04-27T23:37:19.789Z,33.42
2019-04-27T23:39:50.015Z,31.48
2019-04-27T23:42:21.711Z,35.63
2019-04-27T23:44:52.636Z,31.05
2019-04-27T23:47:22.947Z,28.47
2019-04-27T23:49:53.201Z,35.38
2019-04-27T23:52:25.213Z,41.10
2019-04-27T23:54:55.522Z,32.03
2019-04-27T23:57:26.089Z,31.77
2019-04-27T23:59:56.390Z,31.40
